Time;durP1;ratioP1;P1;durP2;ratioP2;P2;SDS_P1;SDS_P2;PMS_P1;PMS_P2;Temp;Humidity;BMP_temperature;BMP_pressure;BME280_temperature;BME280_humidity;BME280_pressure;Samples;Min_cycle;Max_cycle;Signal;HPM_P1;HPM_P2
2022/12/27 00:01:51;;;;;;;13.73;2.25;;;;;;;2.22;100.00;100717.81;5023722;28;20277;-76
2022/12/27 00:04:17;;;;;;;11.25;3.95;;;;;;;2.21;100.00;100718.75;4993652;28;20486;-76
2022/12/27 00:06:42;;;;;;;15.85;3.13;;;;;;;2.14;100.00;100714.88;5015733;28;20061;-76
2022/12/27 00:09:08;;;;;;;14.97;3.37;;;;;;;2.22;100.00;100737.06;4992938;28;20050;-76
2022/12/27 00:11:33;;;;;;;27.45;3.28;;;;;;;2.19;100.00;100724.13;5018142;28;20272;-76
2022/12/27 00:14:03;;;;;;;15.07;3.23;;;;;;;2.15;100.00;100727.91;5013196;28;20081;-76
2022/12/27 00:16:29;;;;;;;16.65;3.28;;;;;;;2.15;100.00;100738.47;5012427;28;20041;-76
2022/12/27 00:18:55;;;;;;;16.08;1.98;;;;;;;2.21;100.00;100732.78;5008975;28;20028;-76
2022/12/27 00:21:21;;;;;;;17.00;3.25;;;;;;;2.21;100.00;100731.94;5026386;28;20034;-76
2022/12/27 00:23:52;;;;;;;14.60;2.30;;;;;;;2.23;100.00;100724.78;5009320;28;20501;-76
2022/12/27 00:26:28;;;;;;;6.30;1.63;;;;;;;2.26;100.00;100729.81;4992247;28;20076;-75
2022/12/27 00:28:54;;;;;;;10.82;2.40;;;;;;;2.19;100.00;100721.50;5005602;28;20092;-76
2022/12/27 00:31:20;;;;;;;12.10;2.75;;;;;;;2.22;100.00;100723.91;4998709;28;20041;-76
2022/12/27 00:33:47;;;;;;;16.15;3.25;;;;;;;2.25;100.00;100738.69;5008475;28;20112;-76
2022/12/27 00:36:17;;;;;;;17.92;3.35;;;;;;;2.26;100.00;100748.25;5008730;28;20057;-76
2022/12/27 00:38:43;;;;;;;13.63;3.60;;;;;;;2.30;100.00;100747.09;4999024;28;20057;-76
2022/12/27 00:41:08;;;;;;;13.73;2.13;;;;;;;2.31;100.00;100746.97;5021622;28;20184;-76
2022/12/27 00:43:34;;;;;;;8.40;2.30;;;;;;;2.29;100.00;100745.38;5023069;28;20402;-76
2022/12/27 00:46:00;;;;;;;12.32;2.55;;;;;;;2.25;100.00;100741.31;5006440;28;20141;-76
2022/12/27 00:48:25;;;;;;;13.82;2.97;;;;;;;2.16;100.00;100723.53;5004723;28;20050;-76
2022/12/27 00:50:58;;;;;;;12.93;2.03;;;;;;;2.14;100.00;100730.69;4991580;28;20044;-76
2022/12/27 00:53:23;;;;;;;11.45;2.85;;;;;;;2.10;100.00;100720.34;5015954;28;20288;-76
2022/12/27 00:55:49;;;;;;;;;;;;;;;2.10;100.00;100722.97;5008204;28;20044;-76
2022/12/27 00:58:14;;;;;;;10.38;3.25;;;;;;;2.03;100.00;100716.47;4986467;28;19917;-76
2022/12/27 01:00:40;;;;;;;13.90;3.03;;;;;;;1.98;100.00;100713.31;5001920;28;20160;-76
2022/12/27 01:03:05;;;;;;;15.33;3.47;;;;;;;1.95;100.00;100715.34;4988884;28;20525;-77
2022/12/27 01:05:30;;;;;;;5.07;1.60;;;;;;;1.94;100.00;100724.16;4988661;28;20634;-76
2022/12/27 01:07:56;;;;;;;14.80;3.13;;;;;;;1.93;100.00;100728.59;5018091;28;20370;-76
2022/12/27 01:10:21;;;;;;;8.73;2.50;;;;;;;2.04;100.00;100741.88;5024656;28;20041;-76
2022/12/27 01:12:46;;;;;;;12.37;2.80;;;;;;;2.05;100.00;100750.59;5015425;28;20292;-76
2022/12/27 01:15:12;;;;;;;10.83;2.17;;;;;;;2.05;100.00;100751.44;5006110;28;20874;-76
2022/12/27 01:17:37;;;;;;;13.57;3.37;;;;;;;2.05;100.00;100748.81;4990257;28;20308;-76
2022/12/27 01:20:03;;;;;;;11.20;2.30;;;;;;;2.19;100.00;100765.44;4979476;28;20042;-76
2022/12/27 01:22:28;;;;;;;25.75;2.67;;;;;;;2.15;100.00;100759.53;4994995;28;20030;-76
2022/12/27 01:24:54;;;;;;;12.47;3.33;;;;;;;2.18;100.00;100764.59;5009121;28;20589;-76
2022/12/27 01:27:19;;;;;;;11.87;2.37;;;;;;;2.20;100.00;100762.72;4992638;28;20272;-76
2022/12/27 01:29:44;;;;;;;14.07;2.60;;;;;;;2.20;100.00;100756.56;5009903;28;20304;-76
2022/12/27 01:32:10;;;;;;;12.03;2.77;;;;;;;2.22;100.00;100759.94;4998032;28;20292;-76
2022/12/27 01:34:35;;;;;;;23.50;3.90;;;;;;;2.24;100.00;100773.84;5012737;28;20037;-76
2022/12/27 01:37:01;;;;;;;16.95;3.10;;;;;;;2.27;100.00;100773.63;4992177;28;20043;-76
2022/12/27 01:39:26;;;;;;;6.27;1.90;;;;;;;2.33;100.00;100768.78;4994588;28;20472;-76
2022/12/27 01:44:39;;;;;;;8.55;4.00;;;;;;;2.41;100.00;100776.16;5008141;28;20038;-76
2022/12/27 01:47:15;;;;;;;13.50;2.35;;;;;;;2.38;100.00;100779.00;5011666;28;20065;-76
2022/12/27 01:49:52;;;;;;;11.32;2.67;;;;;;;2.35;100.00;100779.22;5008063;28;20037;-76
2022/12/27 01:52:17;;;;;;;13.25;2.47;;;;;;;2.27;100.00;100799.97;5008428;28;20035;-77
2022/12/27 01:54:43;;;;;;;11.60;2.60;;;;;;;2.16;100.00;100824.44;5012035;28;20030;-77
2022/12/27 01:57:10;;;;;;;16.45;4.25;;;;;;;2.08;100.00;100827.63;5001338;28;20037;-77
2022/12/27 01:59:36;;;;;;;9.63;4.63;;;;;;;1.99;100.00;100806.31;4992370;28;20724;-77
2022/12/27 02:02:01;;;;;;;15.93;3.15;;;;;;;1.92;100.00;100832.25;4995471;28;20025;-77
2022/12/27 02:04:30;;;;;;;10.30;3.53;;;;;;;1.92;100.00;100849.81;5015891;28;20042;-77
2022/12/27 02:06:56;;;;;;;8.02;2.00;;;;;;;1.90;100.00;100889.44;5010265;28;20036;-77
2022/12/27 02:09:35;;;;;;;12.70;2.72;;;;;;;1.85;100.00;100894.16;5030846;28;20376;-77
2022/12/27 02:12:04;;;;;;;8.95;3.10;;;;;;;1.74;100.00;100889.63;5002040;28;20044;-77
2022/12/27 02:14:37;;;;;;;17.35;4.22;;;;;;;1.79;100.00;100907.75;5019925;28;20037;-77
2022/12/27 02:17:25;;;;;;;7.22;2.25;;;;;;;1.78;100.00;100913.94;5008997;28;20046;-76
2022/12/27 02:20:03;;;;;;;10.18;3.47;;;;;;;1.78;100.00;100909.53;4992308;28;20033;-77
2022/12/27 02:25:49;;;;;;;10.27;2.53;;;;;;;1.81;100.00;100906.69;5010057;28;20037;-77
2022/12/27 02:28:27;;;;;;;14.90;3.08;;;;;;;1.87;100.00;100913.31;5012138;28;20502;-77
2022/12/27 02:31:13;;;;;;;13.80;2.42;;;;;;;1.81;100.00;100903.22;5029717;28;20044;-77
2022/12/27 02:33:45;;;;;;;6.88;2.20;;;;;;;1.82;100.00;100905.72;5029348;28;20216;-77
2022/12/27 02:36:19;;;;;;;5.78;2.80;;;;;;;1.75;100.00;100914.16;4976909;28;20045;-78
2022/12/27 02:38:50;;;;;;;6.15;2.88;;;;;;;1.68;100.00;100904.00;5022080;28;20033;-78
2022/12/27 02:53:06;;;;;;;6.95;3.10;;;;;;;1.49;100.00;100893.00;4932225;29;20102;-77
2022/12/27 02:58:53;;;;;;;22.75;5.75;;;;;;;1.53;100.00;100912.94;4930400;29;20043;-77
2022/12/27 03:05:25;;;;;;;14.13;2.97;;;;;;;1.57;100.00;100898.63;4893223;29;20055;-76
2022/12/27 03:08:19;;;;;;;8.20;3.00;;;;;;;1.50;100.00;100901.75;4877464;29;20053;-78
2022/12/27 03:16:40;;;;;;;12.07;2.92;;;;;;;1.65;100.00;100911.28;4888778;29;20048;-77
2022/12/27 03:25:26;;;;;;;11.55;3.63;;;;;;;1.73;100.00;100922.13;4872482;29;20505;-77
2022/12/27 03:33:11;;;;;;;13.27;3.33;;;;;;;1.81;100.00;100932.19;4958383;28;20154;-76
2022/12/27 03:33:40;;;;;;;17.55;5.00;;;;;;;1.81;100.00;100913.75;4932323;28;20067;-74
2022/12/27 03:39:25;;;;;;;9.25;3.10;;;;;;;1.74;100.00;100888.78;4967081;28;20073;-74
2022/12/27 03:44:41;;;;;;;11.77;3.00;;;;;;;1.85;100.00;100910.81;5007725;28;20036;-76
2022/12/27 03:47:19;;;;;;;12.60;3.33;;;;;;;1.83;100.00;100901.34;5000004;28;20112;-77
2022/12/27 03:49:55;;;;;;;13.52;2.88;;;;;;;1.83;100.00;100911.84;5016654;28;20053;-76
2022/12/27 03:52:31;;;;;;;11.55;3.33;;;;;;;1.86;100.00;100899.31;5004551;28;20029;-74
2022/12/27 03:54:57;;;;;;;6.60;2.70;;;;;;;1.83;100.00;100902.16;5003233;28;20116;-74
2022/12/27 03:57:25;;;;;;;12.93;2.72;;;;;;;1.92;100.00;100911.25;5017700;28;20080;-74
2022/12/27 03:59:53;;;;;;;6.53;2.15;;;;;;;1.81;100.00;100900.59;5019983;28;20565;-74
2022/12/27 04:02:19;;;;;;;10.32;2.85;;;;;;;1.78;100.00;100898.13;5015574;28;20055;-74
2022/12/27 04:04:44;;;;;;;4.35;1.83;;;;;;;1.78;100.00;100888.47;5007224;28;20042;-74
2022/12/27 04:07:12;;;;;;;2.83;2.20;;;;;;;1.75;100.00;100890.44;5016274;28;20064;-73
2022/12/27 04:36:57;;;;;;;12.85;3.38;;;;;;;1.73;100.00;100916.03;5019867;28;20182;-76
2022/12/27 04:39:23;;;;;;;13.40;3.80;;;;;;;1.68;100.00;100908.44;5019043;28;20570;-77
2022/12/27 04:55:40;;;;;;;12.75;2.92;;;;;;;1.55;100.00;100918.09;5006721;28;20168;-77
2022/12/27 04:58:06;;;;;;;8.73;4.27;;;;;;;1.41;100.00;100919.00;4994772;28;20101;-77
2022/12/27 05:03:19;;;;;;;9.23;3.75;;;;;;;1.29;100.00;100927.66;5006627;28;20037;-74
2022/12/27 05:05:47;;;;;;;5.82;2.85;;;;;;;1.22;100.00;100930.69;5008097;28;20040;-74
2022/12/27 05:14:00;;;;;;;3.85;2.60;;;;;;;1.22;100.00;100957.00;4970897;28;20082;-77
2022/12/27 05:16:35;;;;;;;7.15;2.88;;;;;;;1.34;100.00;100970.31;4992649;28;20052;-77
2022/12/27 05:19:01;;;;;;;14.40;2.75;;;;;;;1.42;100.00;100974.13;4993372;28;20230;-77
2022/12/27 05:21:26;;;;;;;8.50;2.47;;;;;;;1.43;100.00;100975.00;4992006;28;20136;-75
2022/12/27 05:26:37;;;;;;;3.47;1.73;;;;;;;1.46;100.00;100978.25;5006763;28;20050;-74
2022/12/27 05:29:04;;;;;;;4.70;1.00;;;;;;;1.51;100.00;101000.81;4992886;28;20038;-75
2022/12/27 05:31:30;;;;;;;3.63;0.90;;;;;;;1.61;100.00;101001.91;5012562;28;20041;-76
2022/12/27 05:33:56;;;;;;;;;;;;;;;1.56;100.00;101009.25;5008831;28;20029;-75
2022/12/27 05:36:22;;;;;;;5.10;1.85;;;;;;;1.50;100.00;101009.63;5021274;28;19913;-75
2022/12/27 05:38:48;;;;;;;;;;;;;;;1.37;100.00;101006.94;5005313;28;20045;-75
2022/12/27 05:41:13;;;;;;;3.33;0.80;;;;;;;1.25;100.00;101012.03;5007688;28;20016;-75
2022/12/27 05:43:39;;;;;;;2.63;0.80;;;;;;;1.06;100.00;100990.47;5009099;28;20044;-75
2022/12/27 05:46:06;;;;;;;4.07;1.02;;;;;;;0.99;100.00;100978.63;4971978;28;20068;-76
2022/12/27 05:48:32;;;;;;;3.45;0.90;;;;;;;0.94;100.00;100975.44;5021270;28;20041;-75
2022/12/27 05:50:58;;;;;;;;;;;;;;;0.89;100.00;100982.75;5008184;28;20140;-75
2022/12/27 05:53:23;;;;;;;4.03;1.10;;;;;;;0.90;100.00;100976.56;5024594;28;20011;-76
2022/12/27 05:55:58;;;;;;;2.47;1.10;;;;;;;0.93;100.00;100990.34;5007191;28;20124;-76
2022/12/27 05:58:24;;;;;;;2.17;1.10;;;;;;;0.96;100.00;100994.56;5025830;28;20029;-76
2022/12/27 06:00:49;;;;;;;4.50;1.52;;;;;;;0.93;100.00;100994.78;5005358;28;20083;-76
2022/12/27 06:03:15;;;;;;;3.10;1.00;;;;;;;0.90;100.00;101001.06;4989783;28;20061;-76
2022/12/27 06:05:40;;;;;;;2.00;1.23;;;;;;;0.94;100.00;101015.72;4994150;28;20117;-76
2022/12/27 06:08:07;;;;;;;3.27;1.67;;;;;;;0.87;100.00;101011.78;5008349;28;20050;-76
2022/12/27 06:10:32;;;;;;;4.68;1.23;;;;;;;0.88;100.00;101007.38;4975625;28;20466;-76
2022/12/27 06:13:02;;;;;;;3.58;1.38;;;;;;;0.92;100.00;101022.84;4992071;28;20515;-75
2022/12/27 06:15:28;;;;;;;1.95;1.38;;;;;;;0.91;100.00;101020.31;4984985;28;20037;-76
2022/12/27 06:17:53;;;;;;;3.15;1.25;;;;;;;0.92;100.00;101024.66;5027636;28;20339;-75
2022/12/27 06:20:19;;;;;;;4.40;2.23;;;;;;;0.93;100.00;101021.06;5011181;28;20041;-75
2022/12/27 06:22:44;;;;;;;6.57;2.15;;;;;;;0.91;100.00;101030.81;5028772;28;20044;-76
2022/12/27 06:25:10;;;;;;;5.00;1.60;;;;;;;0.88;100.00;101038.91;4994876;28;20040;-76
2022/12/27 06:27:35;;;;;;;5.90;2.13;;;;;;;0.84;100.00;101022.47;5027568;28;20087;-76
2022/12/27 06:30:00;;;;;;;2.90;1.50;;;;;;;0.80;100.00;101024.44;5027775;28;20037;-75
2022/12/27 06:32:26;;;;;;;4.22;2.17;;;;;;;0.76;100.00;101025.56;5010620;28;20522;-76
2022/12/27 06:34:51;;;;;;;3.03;1.67;;;;;;;0.87;100.00;101038.06;5009308;28;20061;-76
2022/12/27 06:37:17;;;;;;;8.18;3.47;;;;;;;0.94;100.00;101030.66;4991490;28;20089;-77
2022/12/27 06:39:43;;;;;;;5.50;2.90;;;;;;;0.98;100.00;101045.28;5006833;28;20514;-77
2022/12/27 06:42:08;;;;;;;13.23;4.07;;;;;;;1.05;100.00;101058.00;4987351;28;20405;-76
2022/12/27 06:44:33;;;;;;;9.23;4.05;;;;;;;1.11;100.00;101056.75;5027241;28;20052;-75
2022/12/27 06:46:59;;;;;;;6.30;3.55;;;;;;;1.15;100.00;101060.91;5028095;28;20029;-75
2022/12/27 06:49:24;;;;;;;7.90;3.23;;;;;;;1.16;100.00;101054.69;5010609;28;20701;-76
2022/12/27 06:51:50;;;;;;;10.02;3.47;;;;;;;1.18;100.00;101057.22;4994107;28;20433;-76
2022/12/27 06:54:15;;;;;;;6.45;3.53;;;;;;;1.17;100.00;101056.41;5020354;28;20072;-75
2022/12/27 06:56:40;;;;;;;10.82;4.18;;;;;;;1.16;100.00;101070.47;5008049;28;20517;-74
2022/12/27 06:59:06;;;;;;;11.67;3.47;;;;;;;1.11;100.00;101071.69;4991443;28;20049;-75
2022/12/27 07:01:32;;;;;;;7.18;3.20;;;;;;;1.09;100.00;101078.84;4991345;28;20423;-75
2022/12/27 07:03:58;;;;;;;7.47;3.40;;;;;;;1.11;100.00;101076.97;4977060;28;20065;-75
2022/12/27 07:06:26;;;;;;;5.55;2.60;;;;;;;1.10;100.00;101081.38;5007222;28;20041;-75
2022/12/27 07:08:52;;;;;;;10.07;3.15;;;;;;;1.15;100.00;101092.47;5008593;28;20038;-75
2022/12/27 07:11:18;;;;;;;7.78;3.47;;;;;;;1.10;100.00;101091.91;4974901;28;20037;-75
2022/12/27 07:13:47;;;;;;;9.20;3.40;;;;;;;1.04;100.00;101090.47;4990856;28;20042;-76
2022/12/27 07:16:15;;;;;;;14.95;3.35;;;;;;;1.12;100.00;101099.66;4991202;28;20040;-75
2022/12/27 07:18:41;;;;;;;9.88;3.72;;;;;;;1.11;100.00;101104.09;5014232;28;20037;-75
2022/12/27 07:21:08;;;;;;;8.73;4.18;;;;;;;1.15;100.00;101131.06;4993800;28;20045;-74
2022/12/27 07:23:35;;;;;;;6.97;4.30;;;;;;;1.15;100.00;101116.13;4990971;28;20383;-76
2022/12/27 07:26:11;;;;;;;8.73;4.60;;;;;;;1.24;100.00;101130.47;4989847;28;20033;-75
2022/12/27 07:28:37;;;;;;;12.95;5.15;;;;;;;1.19;100.00;101129.91;5007565;28;20037;-75
2022/12/27 07:31:09;;;;;;;;;;;;;;;1.26;100.00;101139.13;5028185;28;20034;-75
2022/12/27 07:33:37;;;;;;;10.73;4.32;;;;;;;1.15;100.00;101147.69;5023644;28;19924;-75
2022/12/27 07:36:04;;;;;;;18.67;5.75;;;;;;;1.19;100.00;101143.91;5009955;28;20029;-76
2022/12/27 07:38:30;;;;;;;9.38;4.03;;;;;;;1.29;100.00;101152.13;4994039;28;20021;-74
2022/12/27 07:40:58;;;;;;;10.35;4.45;;;;;;;1.27;100.00;101162.72;5024626;28;20037;-75
2022/12/27 07:43:24;;;;;;;15.13;3.90;;;;;;;1.27;100.00;101165.34;5010523;28;20049;-75
2022/12/27 07:45:49;;;;;;;16.17;4.43;;;;;;;1.33;100.00;101171.19;5010178;28;20034;-75
2022/12/27 07:48:14;;;;;;;10.67;3.80;;;;;;;1.31;100.00;101170.41;4998834;28;20065;-75
2022/12/27 07:50:40;;;;;;;13.57;4.90;;;;;;;1.31;100.00;101184.44;4991484;28;20036;-75
2022/12/27 07:53:05;;;;;;;12.80;4.87;;;;;;;1.36;100.00;101186.78;5010212;28;20283;-75
2022/12/27 07:55:30;;;;;;;12.18;5.05;;;;;;;1.41;100.00;101195.25;5010289;28;20491;-75
2022/12/27 07:57:56;;;;;;;14.67;3.93;;;;;;;1.38;100.00;101195.41;4992505;28;20651;-75
2022/12/27 08:00:21;;;;;;;23.27;4.63;;;;;;;1.43;100.00;101196.00;4997803;28;20288;-75
2022/12/27 08:02:47;;;;;;;11.75;3.05;;;;;;;1.47;100.00;101192.25;5014546;28;20032;-74
2022/12/27 08:05:12;;;;;;;11.77;2.83;;;;;;;1.48;100.00;101197.41;5006833;28;20073;-74
2022/12/27 08:07:39;;;;;;;13.73;3.20;;;;;;;1.54;100.00;101205.88;5004932;28;20033;-74
2022/12/27 08:10:05;;;;;;;9.77;3.92;;;;;;;1.63;100.00;101216.69;5008322;28;20296;-74
2022/12/27 08:12:30;;;;;;;9.38;2.85;;;;;;;1.56;100.00;101194.31;5008373;28;20040;-75
2022/12/27 08:14:56;;;;;;;4.83;2.50;;;;;;;1.59;100.00;101193.28;5024548;28;20037;-75
2022/12/27 08:17:26;;;;;;;15.15;3.00;;;;;;;1.68;100.00;101204.09;5003848;28;20069;-74
2022/12/27 08:19:52;;;;;;;36.13;5.00;;;;;;;1.75;100.00;101206.34;5025819;28;20033;-77
2022/12/27 08:22:18;;;;;;;9.82;3.10;;;;;;;1.82;100.00;101205.03;4993429;28;20051;-74
2022/12/27 08:24:43;;;;;;;11.52;2.08;;;;;;;1.78;100.00;101200.88;5024685;28;20038;-74
2022/12/27 08:27:09;;;;;;;14.27;2.20;;;;;;;1.82;100.00;101205.88;5006926;28;20025;-74
2022/12/27 08:29:35;;;;;;;6.40;2.47;;;;;;;1.74;100.00;101212.56;4990553;28;20323;-75
2022/12/27 08:32:01;;;;;;;12.65;2.10;;;;;;;1.71;100.00;101196.94;5023927;28;20042;-74
2022/12/27 08:34:26;;;;;;;8.30;2.50;;;;;;;1.93;100.00;101223.66;4997510;28;20048;-74
2022/12/27 08:36:52;;;;;;;15.05;3.83;;;;;;;1.91;100.00;101215.00;5006907;28;20030;-75
2022/12/27 08:39:18;;;;;;;9.88;2.88;;;;;;;1.93;100.00;101213.13;5016233;28;20029;-75
2022/12/27 08:41:44;;;;;;;8.05;2.45;;;;;;;1.97;100.00;101212.00;5011931;28;20403;-75
2022/12/27 08:44:10;;;;;;;10.13;2.20;;;;;;;2.10;100.00;101223.44;4994017;28;20036;-75
2022/12/27 08:46:36;;;;;;;;;;;;;;;2.03;100.00;101213.38;5022723;28;20514;-75
2022/12/27 08:49:01;;;;;;;6.00;1.73;;;;;;;2.09;100.00;101213.00;5008683;28;19917;-75
2022/12/27 08:51:27;;;;;;;10.68;2.97;;;;;;;2.42;100.00;101228.47;4995973;28;20021;-74
2022/12/27 08:53:53;;;;;;;9.32;2.90;;;;;;;2.75;100.00;101233.34;5003170;28;20503;-75
2022/12/27 08:56:19;;;;;;;12.45;1.90;;;;;;;2.61;100.00;101214.94;5021991;28;20048;-76
2022/12/27 08:58:47;;;;;;;6.77;2.73;;;;;;;2.44;100.00;101197.59;5007052;28;20040;-75
2022/12/27 09:01:12;;;;;;;9.82;2.80;;;;;;;3.05;100.00;101227.00;5014369;28;20288;-76
2022/12/27 09:03:37;;;;;;;8.40;1.53;;;;;;;3.80;100.00;101236.88;5005526;28;20103;-75
2022/12/27 09:06:14;;;;;;;6.57;1.40;;;;;;;3.36;100.00;101194.09;5006588;28;20288;-75
2022/12/27 09:08:39;;;;;;;5.60;2.20;;;;;;;3.23;100.00;101185.34;5002910;28;20060;-75
2022/12/27 09:11:15;;;;;;;6.97;2.23;;;;;;;3.34;100.00;101181.97;4988601;28;20077;-75
2022/12/27 09:13:41;;;;;;;6.40;1.30;;;;;;;3.93;100.00;101199.88;5022368;28;20292;-75
2022/12/27 09:16:12;;;;;;;4.35;1.05;;;;;;;4.05;100.00;101167.31;5017825;28;20040;-76
2022/12/27 09:18:38;;;;;;;2.53;1.48;;;;;;;4.75;100.00;101181.59;5007929;28;20057;-75
2022/12/27 09:21:12;;;;;;;4.40;1.00;;;;;;;4.31;100.00;101143.41;4991356;28;20037;-75
2022/12/27 09:23:39;;;;;;;6.22;1.25;;;;;;;3.41;100.00;101129.59;5008334;28;20037;-75
2022/12/27 09:26:16;;;;;;;4.25;1.00;;;;;;;3.08;100.00;101146.81;4991912;28;20124;-75
2022/12/27 09:28:42;;;;;;;6.47;1.63;;;;;;;2.70;100.00;101166.03;5000789;28;20042;-74
2022/12/27 09:31:09;;;;;;;10.20;1.80;;;;;;;2.49;100.00;101169.13;5008976;28;20386;-74
2022/12/27 09:33:35;;;;;;;8.15;1.90;;;;;;;2.54;100.00;101198.69;5008830;28;20041;-75
2022/12/27 09:36:02;;;;;;;12.27;2.13;;;;;;;2.58;100.00;101204.59;5026066;28;20152;-77
2022/12/27 09:38:27;;;;;;;6.75;1.48;;;;;;;2.61;100.00;101224.66;5027353;28;20448;-74
2022/12/27 09:40:59;;;;;;;4.30;1.48;;;;;;;2.62;100.00;101228.97;5028660;28;20033;-75
2022/12/27 09:44:02;;;;;;;9.23;2.85;;;;;;;2.71;100.00;101231.00;4992380;28;20053;-74
2022/12/27 09:46:42;;;;;;;7.15;1.52;;;;;;;2.91;100.00;101240.25;5003341;28;20033;-75
2022/12/27 09:49:15;;;;;;;11.90;2.53;;;;;;;3.80;100.00;101272.06;5016861;28;20092;-75
2022/12/27 09:51:54;;;;;;;15.73;2.83;;;;;;;3.81;100.00;101249.97;5029192;28;20048;-75
2022/12/27 09:54:29;;;;;;;10.18;2.10;;;;;;;4.10;100.00;101241.81;5011816;28;20041;-75
2022/12/27 09:56:58;;;;;;;9.57;2.58;;;;;;;4.38;100.00;101213.41;5028127;28;20591;-75
2022/12/27 09:59:31;;;;;;;12.15;2.08;;;;;;;4.65;100.00;101197.31;5028003;28;20040;-75
2022/12/27 10:01:57;;;;;;;10.82;2.20;;;;;;;5.20;100.00;101201.13;5027844;28;20092;-75
2022/12/27 10:04:23;;;;;;;5.90;2.03;;;;;;;5.55;100.00;101171.09;4995146;28;20488;-75
2022/12/27 10:06:48;;;;;;;8.80;1.70;;;;;;;4.72;100.00;101086.63;5010414;28;20069;-74
2022/12/27 10:09:16;;;;;;;10.67;1.83;;;;;;;4.21;100.00;101069.25;5024975;28;20868;-75
2022/12/27 10:11:49;;;;;;;8.35;2.22;;;;;;;3.55;100.00;101042.34;5014399;28;20109;-74
2022/12/27 10:14:21;;;;;;;6.57;1.70;;;;;;;3.48;100.00;101067.50;5012747;28;20099;-75
2022/12/27 10:16:58;;;;;;;3.63;1.33;;;;;;;3.97;100.00;101125.56;5026615;28;20037;-75
2022/12/27 10:19:44;;;;;;;7.95;1.33;;;;;;;4.75;100.00;101141.94;5020774;28;20390;-75
2022/12/27 10:22:19;;;;;;;7.97;1.75;;;;;;;5.64;100.00;101109.47;5011266;28;20075;-75
2022/12/27 10:24:50;;;;;;;8.48;1.58;;;;;;;5.69;100.00;101016.38;5011146;28;20882;-74
2022/12/27 10:27:23;;;;;;;6.72;1.65;;;;;;;6.25;100.00;100957.00;5028720;28;20068;-75
2022/12/27 10:29:52;;;;;;;7.25;1.00;;;;;;;6.19;100.00;100856.78;5021739;28;20033;-75
2022/12/27 10:32:17;;;;;;;5.25;1.33;;;;;;;6.21;100.00;100765.56;5009575;28;20026;-75
2022/12/27 10:34:42;;;;;;;3.47;1.50;;;;;;;6.32;100.00;100680.59;5008357;28;20115;-75
2022/12/27 10:37:17;;;;;;;8.77;2.50;;;;;;;6.59;100.00;100636.66;4992267;28;20057;-75
2022/12/27 10:39:42;;;;;;;7.63;1.45;;;;;;;6.92;100.00;100577.00;4992169;28;20038;-75
2022/12/27 10:42:30;;;;;;;5.85;1.88;;;;;;;6.80;100.00;100465.84;5011539;28;20018;-75
2022/12/27 10:45:25;;;;;;;9.10;1.50;;;;;;;5.86;100.00;100393.16;5025677;28;20447;-75
2022/12/27 10:47:55;;;;;;;9.93;2.23;;;;;;;5.48;100.00;100455.75;4992400;28;20125;-75
2022/12/27 10:50:24;;;;;;;11.75;2.20;;;;;;;6.24;100.00;100653.09;4999632;28;20042;-75
2022/12/27 10:52:50;;;;;;;11.38;1.70;;;;;;;6.28;100.00;100657.16;5009510;28;20916;-76
2022/12/27 10:55:37;;;;;;;9.77;2.65;;;;;;;6.48;100.00;100672.09;4991235;28;20459;-75
2022/12/27 10:58:30;;;;;;;11.48;2.15;;;;;;;6.56;100.00;100634.28;4991062;28;20038;-75
2022/12/27 11:00:56;;;;;;;9.15;1.65;;;;;;;6.34;100.00;100579.69;5010630;28;20387;-75
2022/12/27 11:03:22;;;;;;;11.27;2.63;;;;;;;6.41;100.00;100606.50;5007166;28;20034;-75
2022/12/27 11:06:00;;;;;;;10.43;3.05;;;;;;;6.71;100.00;100622.25;5007893;28;20120;-76
2022/12/27 11:08:25;;;;;;;10.93;2.38;;;;;;;6.70;100.00;100553.44;5010658;28;20060;-75
2022/12/27 11:11:11;;;;;;;13.38;4.90;;;;;;;6.61;100.00;100485.31;5007322;28;20030;-75
2022/12/27 11:13:36;;;;;;;19.75;2.90;;;;;;;5.91;100.00;100392.75;4990612;28;20406;-75
2022/12/27 11:16:02;;;;;;;10.60;1.87;;;;;;;5.64;100.00;100475.53;5008404;28;20030;-75
2022/12/27 11:18:28;;;;;;;11.63;2.28;;;;;;;4.57;100.00;100469.88;5006267;28;20161;-76
2022/12/27 11:20:56;;;;;;;11.52;2.22;;;;;;;5.18;100.00;100754.88;5027686;28;20029;-75
2022/12/27 11:23:25;;;;;;;10.27;1.83;;;;;;;4.55;100.00;100709.78;5020181;28;20120;-75
2022/12/27 11:25:59;;;;;;;16.75;3.28;;;;;;;4.38;100.00;100782.50;4990551;28;20060;-75
2022/12/27 11:28:37;;;;;;;11.63;1.88;;;;;;;4.20;100.00;100867.56;5024362;28;20124;-74
2022/12/27 11:31:07;;;;;;;10.23;1.77;;;;;;;4.05;100.00;100940.09;5024045;28;20035;-74
2022/12/27 11:33:38;;;;;;;13.23;2.08;;;;;;;3.90;100.00;100988.78;5023750;28;20053;-75
2022/12/27 11:36:06;;;;;;;10.70;2.30;;;;;;;3.81;100.00;101033.38;5003827;28;20349;-75
2022/12/27 11:38:33;;;;;;;11.63;3.08;;;;;;;3.94;100.00;101074.78;5013382;28;20430;-75
2022/12/27 11:41:08;;;;;;;5.22;1.40;;;;;;;4.30;100.00;101113.50;4987650;28;20345;-75
2022/12/27 11:43:59;;;;;;;6.55;1.55;;;;;;;4.81;100.00;101133.53;4992535;28;20033;-75
2022/12/27 11:46:41;;;;;;;6.75;1.45;;;;;;;4.39;100.00;101011.53;5009795;28;20041;-77
2022/12/27 11:49:17;;;;;;;7.93;1.40;;;;;;;4.33;100.00;101011.97;5009719;28;20029;-75
2022/12/27 11:52:06;;;;;;;7.93;1.52;;;;;;;3.78;100.00;100988.72;5023813;28;20414;-75
2022/12/27 11:54:56;;;;;;;5.90;1.08;;;;;;;3.74;100.00;101053.25;5009096;28;20124;-75
2022/12/27 11:57:36;;;;;;;5.05;1.10;;;;;;;3.86;100.00;101129.94;5027049;28;20065;-75
2022/12/27 12:00:22;;;;;;;4.60;1.33;;;;;;;3.77;100.00;101158.72;5013522;28;20034;-75
2022/12/27 12:03:00;;;;;;;;;;;;;;;3.75;100.00;101204.69;5005809;28;20052;-75
2022/12/27 12:05:48;;;;;;;5.93;1.88;;;;;;;3.97;100.00;101251.56;5014421;28;19917;-75
2022/12/27 12:08:32;;;;;;;6.53;1.30;;;;;;;3.88;100.00;101250.38;5007178;28;20036;-75
2022/12/27 12:11:19;;;;;;;6.50;2.35;;;;;;;3.74;100.00;101248.69;5003919;28;20128;-75
2022/12/27 12:14:18;;;;;;;7.47;2.08;;;;;;;3.55;100.00;101248.28;5022115;28;20055;-75
2022/12/27 12:17:03;;;;;;;7.70;2.80;;;;;;;3.33;100.00;101272.66;5000907;28;20048;-75
2022/12/27 12:19:42;;;;;;;8.05;1.98;;;;;;;3.48;100.00;101318.28;5006999;28;20387;-75
2022/12/27 12:22:32;;;;;;;11.68;2.38;;;;;;;3.31;100.00;101322.06;4989110;28;20056;-77
2022/12/27 12:25:23;;;;;;;13.80;2.42;;;;;;;3.38;100.00;101360.28;5025862;28;20105;-77
2022/12/27 12:28:40;;;;;;;11.02;2.00;;;;;;;3.41;100.00;101373.28;5027342;28;20053;-76
2022/12/27 12:31:51;;;;;;;6.30;2.30;;;;;;;3.69;100.00;101413.72;4934971;29;20058;-78
2022/12/27 12:34:36;;;;;;;8.13;2.42;;;;;;;3.61;100.00;101390.47;4953994;28;20046;-77
2022/12/27 12:37:08;;;;;;;10.63;2.73;;;;;;;3.51;100.00;101378.81;4945651;29;20061;-77
2022/12/27 12:40:09;;;;;;;13.07;2.50;;;;;;;3.43;100.00;101375.84;4930548;29;20822;-77
2022/12/27 12:42:39;;;;;;;11.25;2.42;;;;;;;3.27;100.00;101374.19;4930469;28;20047;-76
2022/12/27 12:45:13;;;;;;;8.73;2.05;;;;;;;3.33;100.00;101396.72;4944184;28;20459;-77
2022/12/27 12:47:57;;;;;;;10.32;2.08;;;;;;;3.37;100.00;101422.81;4934567;28;20057;-76
2022/12/27 12:50:34;;;;;;;9.82;2.45;;;;;;;3.32;100.00;101424.03;4933935;29;20577;-77
2022/12/27 12:53:20;;;;;;;9.00;2.35;;;;;;;3.34;100.00;101414.22;4943457;28;20139;-77
2022/12/27 12:56:04;;;;;;;16.25;4.53;;;;;;;3.26;100.00;101412.09;4932105;28;20047;-77
2022/12/27 12:58:55;;;;;;;12.85;2.72;;;;;;;3.33;100.00;101423.94;4966055;28;20047;-76
2022/12/27 13:01:25;;;;;;;12.40;2.83;;;;;;;3.33;100.00;101423.09;4960055;28;20043;-75
2022/12/27 13:04:09;;;;;;;14.93;3.35;;;;;;;3.41;100.00;101430.53;4969841;28;20043;-76
2022/12/27 13:06:59;;;;;;;17.10;3.38;;;;;;;3.39;100.00;101430.59;5022293;28;20656;-76
2022/12/27 13:09:42;;;;;;;9.90;2.42;;;;;;;3.34;100.00;101422.97;5006502;28;20069;-76
2022/12/27 13:12:23;;;;;;;12.77;3.00;;;;;;;3.40;100.00;101426.19;5006763;28;20034;-76
2022/12/27 13:15:10;;;;;;;13.45;2.95;;;;;;;3.35;100.00;101426.50;5008862;28;20143;-76
2022/12/27 13:18:00;;;;;;;7.40;2.25;;;;;;;3.25;100.00;101404.25;5011007;28;20506;-77